sensor_id;sensor_type;location;lat;lon;timestamp;pressure;altitude;pressure_sealevel;temperature;humidity
18784;BME280;9520;50.954;6.968;2024-02-26T00:00:10;99180.28;;;15.60;42.00
18784;BME280;9520;50.954;6.968;2024-02-26T00:00:33;99183.44;;;15.66;42.02
18784;BME280;9520;50.954;6.968;2024-02-26T00:00:56;99187.63;;;15.70;41.96
18784;BME280;9520;50.954;6.968;2024-02-26T00:01:19;99184.03;;;15.71;41.51
18784;BME280;9520;50.954;6.968;2024-02-26T00:01:42;99180.50;;;15.71;41.70
18784;BME280;9520;50.954;6.968;2024-02-26T00:02:05;99180.50;;;15.71;41.55
18784;BME280;9520;50.954;6.968;2024-02-26T00:02:27;99181.16;;;15.74;41.62
18784;BME280;9520;50.954;6.968;2024-02-26T00:02:50;99183.75;;;15.76;41.45
18784;BME280;9520;50.954;6.968;2024-02-26T00:03:11;99179.38;;;15.75;41.38
18784;BME280;9520;50.954;6.968;2024-02-26T00:03:33;99180.06;;;15.78;41.28
18784;BME280;9520;50.954;6.968;2024-02-26T00:03:57;99182.31;;;15.70;41.52
18784;BME280;9520;50.954;6.968;2024-02-26T00:04:21;99187.63;;;15.70;41.30
18784;BME280;9520;50.954;6.968;2024-02-26T00:04:43;99185.53;;;15.75;41.27
18784;BME280;9520;50.954;6.968;2024-02-26T00:05:06;99176.63;;;15.76;41.25
18784;BME280;9520;50.954;6.968;2024-02-26T00:05:27;99183.63;;;15.63;41.46
18784;BME280;9520;50.954;6.968;2024-02-26T00:05:49;99181.63;;;15.67;41.69
18784;BME280;9520;50.954;6.968;2024-02-26T00:06:11;99155.91;;;15.37;42.04
18784;BME280;9520;50.954;6.968;2024-02-26T00:06:34;99187.41;;;15.59;41.71
18784;BME280;9520;50.954;6.968;2024-02-26T00:06:56;99179.34;;;15.61;41.69
18784;BME280;9520;50.954;6.968;2024-02-26T00:07:18;99185.50;;;15.61;41.61
18784;BME280;9520;50.954;6.968;2024-02-26T00:07:39;99186.88;;;15.68;41.67
18784;BME280;9520;50.954;6.968;2024-02-26T00:08:01;99191.13;;;15.71;41.59
18784;BME280;9520;50.954;6.968;2024-02-26T00:08:26;99182.22;;;15.72;41.75
18784;BME280;9520;50.954;6.968;2024-02-26T00:08:49;99186.00;;;15.68;41.74
18784;BME280;9520;50.954;6.968;2024-02-26T00:09:10;99186.88;;;15.68;41.91
18784;BME280;9520;50.954;6.968;2024-02-26T00:09:32;99192.84;;;15.72;41.71
18784;BME280;9520;50.954;6.968;2024-02-26T00:09:57;99188.75;;;15.66;41.66
18784;BME280;9520;50.954;6.968;2024-02-26T00:10:18;99184.50;;;15.64;41.77
18784;BME280;9520;50.954;6.968;2024-02-26T00:10:42;99186.97;;;15.67;41.84
18784;BME280;9520;50.954;6.968;2024-02-26T00:11:04;99185.50;;;15.61;41.99
18784;BME280;9520;50.954;6.968;2024-02-26T00:11:26;99182.94;;;15.60;41.90
18784;BME280;9520;50.954;6.968;2024-02-26T00:11:47;99187.16;;;15.64;41.64
18784;BME280;9520;50.954;6.968;2024-02-26T00:12:09;99185.25;;;15.66;41.84
18784;BME280;9520;50.954;6.968;2024-02-26T00:12:32;99183.53;;;15.65;41.93
18784;BME280;9520;50.954;6.968;2024-02-26T00:12:53;99180.69;;;15.68;41.97
18784;BME280;9520;50.954;6.968;2024-02-26T00:13:15;99180.69;;;15.68;42.02
18784;BME280;9520;50.954;6.968;2024-02-26T00:13:37;99179.06;;;15.65;42.70
18784;BME280;9520;50.954;6.968;2024-02-26T00:13:58;99177.09;;;15.69;42.76
18784;BME280;9520;50.954;6.968;2024-02-26T00:14:21;99182.41;;;15.69;42.81
18784;BME280;9520;50.954;6.968;2024-02-26T00:14:43;99174.25;;;15.72;42.80
18784;BME280;9520;50.954;6.968;2024-02-26T00:15:07;99186.47;;;15.74;42.87
18784;BME280;9520;50.954;6.968;2024-02-26T00:15:29;99178.63;;;15.73;43.00
18784;BME280;9520;50.954;6.968;2024-02-26T00:15:51;99172.38;;;15.74;42.59
18784;BME280;9520;50.954;6.968;2024-02-26T00:16:13;99184.53;;;15.78;42.67
18784;BME280;9520;50.954;6.968;2024-02-26T00:16:35;99177.41;;;15.78;42.28
18784;BME280;9520;50.954;6.968;2024-02-26T00:16:57;99172.91;;;15.79;42.34
18784;BME280;9520;50.954;6.968;2024-02-26T00:17:18;99181.75;;;15.79;42.25
18784;BME280;9520;50.954;6.968;2024-02-26T00:49:24;99145.22;;;14.31;44.24
18784;BME280;9520;50.954;6.968;2024-02-26T00:49:46;99144.50;;;14.27;44.19
18784;BME280;9520;50.954;6.968;2024-02-26T00:50:09;99140.75;;;14.31;44.18
18784;BME280;9520;50.954;6.968;2024-02-26T00:50:31;99135.19;;;14.20;44.59
18784;BME280;9520;50.954;6.968;2024-02-26T00:50:53;99128.03;;;13.89;44.81
18784;BME280;9520;50.954;6.968;2024-02-26T00:51:14;99142.66;;;13.96;44.84
18784;BME280;9520;50.954;6.968;2024-02-26T00:51:37;99138.81;;;14.02;44.89
18784;BME280;9520;50.954;6.968;2024-02-26T00:52:00;99140.22;;;14.09;44.73
18784;BME280;9520;50.954;6.968;2024-02-26T00:52:21;99141.59;;;14.16;44.39
18784;BME280;9520;50.954;6.968;2024-02-26T00:52:43;99137.00;;;14.19;44.33
18784;BME280;9520;50.954;6.968;2024-02-26T00:53:05;99140.03;;;14.12;44.52
18784;BME280;9520;50.954;6.968;2024-02-26T00:53:27;99144.41;;;14.13;44.91
18784;BME280;9520;50.954;6.968;2024-02-26T00:53:50;99139.97;;;14.13;44.97
18784;BME280;9520;50.954;6.968;2024-02-26T00:54:12;99136.88;;;14.21;44.92
18784;BME280;9520;50.954;6.968;2024-02-26T00:54:34;99144.75;;;14.07;44.79
18784;BME280;9520;50.954;6.968;2024-02-26T00:54:55;99139.38;;;14.08;44.89
18784;BME280;9520;50.954;6.968;2024-02-26T00:55:17;99146.88;;;14.16;44.61
18784;BME280;9520;50.954;6.968;2024-02-26T00:55:40;99148.28;;;14.23;44.35
18784;BME280;9520;50.954;6.968;2024-02-26T00:56:02;99144.19;;;14.33;44.31
18784;BME280;9520;50.954;6.968;2024-02-26T00:56:23;99149.41;;;14.35;44.34
18784;BME280;9520;50.954;6.968;2024-02-26T00:56:45;99150.91;;;14.40;44.69
18784;BME280;9520;50.954;6.968;2024-02-26T00:57:07;99147.16;;;14.44;44.42
18784;BME280;9520;50.954;6.968;2024-02-26T00:57:29;99151.34;;;14.48;44.29
18784;BME280;9520;50.954;6.968;2024-02-26T00:57:52;99151.16;;;14.51;44.27
18784;BME280;9520;50.954;6.968;2024-02-26T00:58:14;99128.84;;;14.40;44.24
18784;BME280;9520;50.954;6.968;2024-02-26T00:58:36;99153.47;;;14.57;44.22
18784;BME280;9520;50.954;6.968;2024-02-26T00:58:58;99159.38;;;14.62;44.24
18784;BME280;9520;50.954;6.968;2024-02-26T00:59:19;99152.53;;;14.58;44.37
18784;BME280;9520;50.954;6.968;2024-02-26T00:59:41;99154.94;;;14.63;44.32
18784;BME280;9520;50.954;6.968;2024-02-26T01:00:04;99153.81;;;14.67;44.24
18784;BME280;9520;50.954;6.968;2024-02-26T01:00:27;99158.97;;;14.70;44.58
18784;BME280;9520;50.954;6.968;2024-02-26T01:00:49;99167.66;;;14.72;44.64
18784;BME280;9520;50.954;6.968;2024-02-26T01:01:11;99157.66;;;14.77;44.43
18784;BME280;9520;50.954;6.968;2024-02-26T01:01:33;99161.84;;;14.81;44.08
18784;BME280;9520;50.954;6.968;2024-02-26T01:01:54;99157.56;;;14.79;44.35
18784;BME280;9520;50.954;6.968;2024-02-26T01:02:17;99166.28;;;14.81;44.40
18784;BME280;9520;50.954;6.968;2024-02-26T01:02:39;99159.78;;;14.86;44.37
18784;BME280;9520;50.954;6.968;2024-02-26T01:03:01;99160.47;;;14.90;44.49
18784;BME280;9520;50.954;6.968;2024-02-26T01:03:23;99159.44;;;14.92;44.23
18784;BME280;9520;50.954;6.968;2024-02-26T01:03:44;99164.75;;;14.92;44.01
18784;BME280;9520;50.954;6.968;2024-02-26T01:04:07;99159.44;;;14.92;44.20
18784;BME280;9520;50.954;6.968;2024-02-26T01:04:31;99163.47;;;14.84;44.09
18784;BME280;9520;50.954;6.968;2024-02-26T01:04:52;99163.22;;;14.88;44.19
18784;BME280;9520;50.954;6.968;2024-02-26T01:05:14;99157.72;;;14.91;44.17
18784;BME280;9520;50.954;6.968;2024-02-26T01:05:37;99155.53;;;14.84;44.37
18784;BME280;9520;50.954;6.968;2024-02-26T01:05:59;99149.09;;;14.88;44.22
18784;BME280;9520;50.954;6.968;2024-02-26T01:06:21;99156.00;;;14.90;44.30
18784;BME280;9520;50.954;6.968;2024-02-26T01:06:43;99157.56;;;14.94;44.34
18784;BME280;9520;50.954;6.968;2024-02-26T01:07:05;99154.13;;;14.92;44.32
18784;BME280;9520;50.954;6.968;2024-02-26T01:07:28;99152.41;;;14.91;44.25
18784;BME280;9520;50.954;6.968;2024-02-26T01:07:50;99160.47;;;14.90;43.99
18784;BME280;9520;50.954;6.968;2024-02-26T01:08:12;99147.97;;;14.92;43.83
18784;BME280;9520;50.954;6.968;2024-02-26T01:08:34;99150.97;;;14.86;44.18
18784;BME280;9520;50.954;6.968;2024-02-26T01:08:57;99156.28;;;14.86;44.30
18784;BME280;9520;50.954;6.968;2024-02-26T01:09:19;99157.13;;;14.86;44.16
18784;BME280;9520;50.954;6.968;2024-02-26T01:29:41;99145.59;;;14.40;46.53
18784;BME280;9520;50.954;6.968;2024-02-26T01:30:05;99149.69;;;14.46;46.13
18784;BME280;9520;50.954;6.968;2024-02-26T01:30:27;99141.66;;;14.47;46.01
18784;BME280;9520;50.954;6.968;2024-02-26T01:30:49;99141.50;;;14.50;46.08
18784;BME280;9520;50.954;6.968;2024-02-26T01:31:11;99137.63;;;14.56;46.00
18784;BME280;9520;50.954;6.968;2024-02-26T01:31:32;99084.38;;;14.27;46.87
18784;BME280;9520;50.954;6.968;2024-02-26T01:31:55;99146.09;;;14.62;46.54
18784;BME280;9520;50.954;6.968;2024-02-26T01:32:17;99139.59;;;14.68;46.92
18784;BME280;9520;50.954;6.968;2024-02-26T01:32:39;99140.81;;;14.62;46.63
18784;BME280;9520;50.954;6.968;2024-02-26T01:33:01;99145.59;;;14.72;46.19
18784;BME280;9520;50.954;6.968;2024-02-26T01:33:23;99125.41;;;14.53;46.12
18784;BME280;9520;50.954;6.968;2024-02-26T01:33:44;99131.81;;;14.65;46.33
18784;BME280;9520;50.954;6.968;2024-02-26T01:34:07;99116.25;;;14.59;45.83
18784;BME280;9520;50.954;6.968;2024-02-26T01:34:29;99141.81;;;14.76;45.87
18784;BME280;9520;50.954;6.968;2024-02-26T01:34:51;99142.00;;;14.73;45.61
18784;BME280;9520;50.954;6.968;2024-02-26T01:35:13;99130.78;;;14.67;45.31
18784;BME280;9520;50.954;6.968;2024-02-26T01:35:35;99141.66;;;14.79;45.35
18784;BME280;9520;50.954;6.968;2024-02-26T01:35:56;99146.78;;;14.82;45.68
18784;BME280;9520;50.954;6.968;2024-02-26T01:36:18;99143.97;;;14.85;45.84
18784;BME280;9520;50.954;6.968;2024-02-26T01:36:41;99139.94;;;14.78;46.16
18784;BME280;9520;50.954;6.968;2024-02-26T01:37:03;99137.88;;;14.83;46.04
18784;BME280;9520;50.954;6.968;2024-02-26T01:37:24;99138.06;;;14.80;45.92
18784;BME280;9520;50.954;6.968;2024-02-26T01:37:46;99149.34;;;14.52;45.75
18784;BME280;9520;50.954;6.968;2024-02-26T01:38:08;99140.53;;;14.51;46.12
18784;BME280;9520;50.954;6.968;2024-02-26T01:38:30;99144.91;;;14.52;46.25
18784;BME280;9520;50.954;6.968;2024-02-26T01:38:52;99128.06;;;14.53;46.72
18784;BME280;9520;50.954;6.968;2024-02-26T01:39:14;99142.66;;;14.60;46.33
18784;BME280;9520;50.954;6.968;2024-02-26T01:39:36;99143.38;;;14.64;46.33
18784;BME280;9520;50.954;6.968;2024-02-26T01:39:58;99147.81;;;14.63;46.40
18784;BME280;9520;50.954;6.968;2024-02-26T01:40:20;99139.34;;;14.57;46.15
18784;BME280;9520;50.954;6.968;2024-02-26T01:40:41;99143.13;;;14.53;46.24
18784;BME280;9520;50.954;6.968;2024-02-26T01:41:04;99141.91;;;14.58;46.29
18784;BME280;9520;50.954;6.968;2024-02-26T01:41:26;99145.16;;;14.63;46.51
18784;BME280;9520;50.954;6.968;2024-02-26T01:41:47;99141.59;;;14.64;46.85
18784;BME280;9520;50.954;6.968;2024-02-26T01:42:09;99135.31;;;14.65;47.39
18784;BME280;9520;50.954;6.968;2024-02-26T01:42:31;99151.75;;;14.72;47.19
18784;BME280;9520;50.954;6.968;2024-02-26T01:42:53;99145.59;;;14.72;47.04
18784;BME280;9520;50.954;6.968;2024-02-26T01:43:16;99142.50;;;14.63;46.48
18784;BME280;9520;50.954;6.968;2024-02-26T01:43:38;99124.69;;;14.34;46.47
18784;BME280;9520;50.954;6.968;2024-02-26T01:43:59;99133.78;;;14.46;46.74
18784;BME280;9520;50.954;6.968;2024-02-26T01:44:21;99139.69;;;14.51;47.20
18784;BME280;9520;50.954;6.968;2024-02-26T01:44:45;99140.19;;;14.57;47.55
18784;BME280;9520;50.954;6.968;2024-02-26T01:45:14;99136.88;;;14.38;46.74
18784;BME280;9520;50.954;6.968;2024-02-26T01:45:37;99131.63;;;14.37;46.76
18784;BME280;9520;50.954;6.968;2024-02-26T01:45:59;99142.84;;;14.42;46.72
18784;BME280;9520;50.954;6.968;2024-02-26T01:46:21;99147.28;;;14.41;47.05
18784;BME280;9520;50.954;6.968;2024-02-26T01:46:43;99135.50;;;14.47;46.62
18784;BME280;9520;50.954;6.968;2024-02-26T01:47:08;99138.84;;;14.50;46.67
18784;BME280;9520;50.954;6.968;2024-02-26T01:47:32;99137.88;;;14.51;46.62
18784;BME280;9520;50.954;6.968;2024-02-26T01:47:54;99137.56;;;14.57;46.87
18784;BME280;9520;50.954;6.968;2024-02-26T01:48:17;99140.97;;;14.44;46.89
18784;BME280;9520;50.954;6.968;2024-02-26T01:48:40;99116.63;;;14.36;46.61
18784;BME280;9520;50.954;6.968;2024-02-26T01:49:02;99143.19;;;14.51;46.61
18784;BME280;9520;50.954;6.968;2024-02-26T01:49:24;99132.94;;;14.45;46.63
18784;BME280;9520;50.954;6.968;2024-02-26T01:49:47;99139.59;;;14.52;46.64
18784;BME280;9520;50.954;6.968;2024-02-26T01:50:09;99134.47;;;14.49;46.61
18784;BME280;9520;50.954;6.968;2024-02-26T01:50:32;99140.78;;;14.47;46.70
18784;BME280;9520;50.954;6.968;2024-02-26T01:50:56;99138.13;;;14.47;46.83
18784;BME280;9520;50.954;6.968;2024-02-26T01:51:18;99137.72;;;14.54;46.91
18784;BME280;9520;50.954;6.968;2024-02-26T01:51:41;99139.34;;;14.57;46.98
18784;BME280;9520;50.954;6.968;2024-02-26T01:52:06;99134.91;;;14.57;47.33
18784;BME280;9520;50.954;6.968;2024-02-26T01:52:28;99128.81;;;14.55;47.20
18784;BME280;9520;50.954;6.968;2024-02-26T01:52:52;99134.81;;;14.59;47.17
18784;BME280;9520;50.954;6.968;2024-02-26T01:53:16;99131.13;;;14.61;47.08
18784;BME280;9520;50.954;6.968;2024-02-26T01:53:38;99120.03;;;14.55;47.17
18784;BME280;9520;50.954;6.968;2024-02-26T01:54:01;99135.50;;;14.62;47.09
18784;BME280;9520;50.954;6.968;2024-02-26T01:54:24;99125.06;;;14.59;47.24
18784;BME280;9520;50.954;6.968;2024-02-26T01:54:47;99125.66;;;14.64;47.50
18784;BME280;9520;50.954;6.968;2024-02-26T01:55:09;99137.53;;;14.73;47.50
18784;BME280;9520;50.954;6.968;2024-02-26T01:55:31;99129.50;;;14.75;47.16
18784;BME280;9520;50.954;6.968;2024-02-26T01:55:53;99132.91;;;14.77;46.92
18784;BME280;9520;50.954;6.968;2024-02-26T01:56:16;99122.22;;;14.78;46.78
18784;BME280;9520;50.954;6.968;2024-02-26T01:56:39;99123.94;;;14.48;46.72
18784;BME280;9520;50.954;6.968;2024-02-26T01:57:03;99121.84;;;14.21;47.24
18784;BME280;9520;50.954;6.968;2024-02-26T01:57:25;99124.59;;;14.20;47.41
18784;BME280;9520;50.954;6.968;2024-02-26T01:57:49;99126.75;;;14.29;47.34
18784;BME280;9520;50.954;6.968;2024-02-26T01:58:13;99126.47;;;14.34;47.29
18784;BME280;9520;50.954;6.968;2024-02-26T01:58:36;99129.31;;;14.31;47.32
18784;BME280;9520;50.954;6.968;2024-02-26T01:58:59;99126.47;;;14.34;47.29
18784;BME280;9520;50.954;6.968;2024-02-26T01:59:21;99124.53;;;14.37;47.77
18784;BME280;9520;50.954;6.968;2024-02-26T01:59:43;99125.13;;;14.42;47.67
18784;BME280;9520;50.954;6.968;2024-02-26T02:00:08;99124.13;;;14.45;48.09
18784;BME280;9520;50.954;6.968;2024-02-26T02:00:30;99129.84;;;14.37;47.42
18784;BME280;9520;50.954;6.968;2024-02-26T02:00:54;99125.31;;;14.39;47.47
18784;BME280;9520;50.954;6.968;2024-02-26T02:01:17;99112.34;;;14.33;47.33
18784;BME280;9520;50.954;6.968;2024-02-26T02:01:44;99116.84;;;14.48;47.35
18784;BME280;9520;50.954;6.968;2024-02-26T02:02:10;99124.59;;;14.36;47.80
18784;BME280;9520;50.954;6.968;2024-02-26T02:02:33;99124.38;;;14.40;47.91
18784;BME280;9520;50.954;6.968;2024-02-26T02:02:55;99125.06;;;14.44;47.82
18784;BME280;9520;50.954;6.968;2024-02-26T02:03:18;99125.00;;;14.45;48.26
18784;BME280;9520;50.954;6.968;2024-02-26T02:03:40;99127.47;;;14.48;48.11
18784;BME280;9520;50.954;6.968;2024-02-26T02:04:03;99123.16;;;14.46;47.76
18784;BME280;9520;50.954;6.968;2024-02-26T02:04:25;99102.53;;;14.35;47.24
18784;BME280;9520;50.954;6.968;2024-02-26T02:04:47;99128.25;;;14.50;47.18
18784;BME280;9520;50.954;6.968;2024-02-26T02:05:11;99127.97;;;14.55;46.94
18784;BME280;9520;50.954;6.968;2024-02-26T02:05:34;99131.47;;;14.55;47.04
18784;BME280;9520;50.954;6.968;2024-02-26T02:06:03;99126.00;;;14.58;46.80
18784;BME280;9520;50.954;6.968;2024-02-26T02:06:26;99124.97;;;14.61;46.99
18784;BME280;9520;50.954;6.968;2024-02-26T02:06:50;99105.19;;;14.51;47.40
18784;BME280;9520;50.954;6.968;2024-02-26T02:07:15;99127.78;;;14.42;47.39
18784;BME280;9520;50.954;6.968;2024-02-26T02:07:37;99128.13;;;14.36;47.73
18784;BME280;9520;50.954;6.968;2024-02-26T02:07:59;99130.00;;;14.34;47.46
18784;BME280;9520;50.954;6.968;2024-02-26T02:08:22;99096.28;;;14.20;47.61
18784;BME280;9520;50.954;6.968;2024-02-26T02:08:46;99119.19;;;14.21;47.72
18784;BME280;9520;50.954;6.968;2024-02-26T02:09:09;99125.81;;;14.30;47.83
18784;BME280;9520;50.954;6.968;2024-02-26T02:09:31;99135.19;;;14.36;47.80
18784;BME280;9520;50.954;6.968;2024-02-26T02:09:53;99109.38;;;14.23;48.24
18784;BME280;9520;50.954;6.968;2024-02-26T02:10:16;99132.34;;;14.40;48.16
18784;BME280;9520;50.954;6.968;2024-02-26T02:10:38;99128.56;;;14.44;47.97
18784;BME280;9520;50.954;6.968;2024-02-26T02:11:00;99111.28;;;14.37;47.74
18784;BME280;9520;50.954;6.968;2024-02-26T02:11:22;99128.31;;;14.49;47.87
18784;BME280;9520;50.954;6.968;2024-02-26T02:11:44;99125.66;;;14.49;47.68
18784;BME280;9520;50.954;6.968;2024-02-26T02:12:06;99127.00;;;14.56;48.13
18784;BME280;9520;50.954;6.968;2024-02-26T02:12:28;99127.78;;;14.58;47.88
18784;BME280;9520;50.954;6.968;2024-02-26T02:12:50;99105.78;;;14.24;48.12
18784;BME280;9520;50.954;6.968;2024-02-26T02:13:13;99130.44;;;14.42;48.00
18784;BME280;9520;50.954;6.968;2024-02-26T02:13:35;99127.63;;;14.45;48.16
18784;BME280;9520;50.954;6.968;2024-02-26T02:13:56;99129.44;;;14.45;48.42
18784;BME280;9520;50.954;6.968;2024-02-26T02:14:18;99131.03;;;14.47;48.87
18784;BME280;9520;50.954;6.968;2024-02-26T02:14:40;99128.91;;;14.38;48.21
18784;BME280;9520;50.954;6.968;2024-02-26T02:15:03;99117.50;;;14.36;48.22
18784;BME280;9520;50.954;6.968;2024-02-26T02:15:28;99120.69;;;14.43;47.95
18784;BME280;9520;50.954;6.968;2024-02-26T02:15:50;99128.66;;;14.43;47.75
18784;BME280;9520;50.954;6.968;2024-02-26T02:16:12;99118.97;;;14.42;48.51
18784;BME280;9520;50.954;6.968;2024-02-26T02:16:33;99128.72;;;14.41;48.55
18784;BME280;9520;50.954;6.968;2024-02-26T02:16:55;99122.66;;;14.39;48.60
18784;BME280;9520;50.954;6.968;2024-02-26T02:17:17;99124.38;;;14.40;48.42
18784;BME280;9520;50.954;6.968;2024-02-26T02:17:40;99125.00;;;14.45;48.36
18784;BME280;9520;50.954;6.968;2024-02-26T02:18:02;99116.91;;;14.47;48.72
18784;BME280;9520;50.954;6.968;2024-02-26T02:18:24;99113.59;;;14.43;48.59
18784;BME280;9520;50.954;6.968;2024-02-26T02:18:46;99119.16;;;14.54;48.73
18784;BME280;9520;50.954;6.968;2024-02-26T02:19:08;99127.28;;;14.51;48.54
18784;BME280;9520;50.954;6.968;2024-02-26T02:19:30;99120.69;;;14.58;48.47
18784;BME280;9520;50.954;6.968;2024-02-26T02:19:53;99116.50;;;14.54;48.53
18784;BME280;9520;50.954;6.968;2024-02-26T02:20:16;99116.91;;;14.47;48.53
18784;BME280;9520;50.954;6.968;2024-02-26T02:20:39;99114.78;;;14.38;48.23
18784;BME280;9520;50.954;6.968;2024-02-26T02:21:01;99109.28;;;14.25;48.26
18784;BME280;9520;50.954;6.968;2024-02-26T02:21:23;99123.59;;;14.38;48.55
18784;BME280;9520;50.954;6.968;2024-02-26T02:21:45;99122.34;;;14.45;48.63
18784;BME280;9520;50.954;6.968;2024-02-26T02:22:06;99118.91;;;14.43;49.00
18784;BME280;9520;50.954;6.968;2024-02-26T02:22:29;99122.81;;;14.52;49.22
18784;BME280;9520;50.954;6.968;2024-02-26T02:22:53;99117.25;;;14.56;49.33
18784;BME280;9520;50.954;6.968;2024-02-26T02:23:15;99120.63;;;14.60;49.16
18784;BME280;9520;50.954;6.968;2024-02-26T02:23:36;99112.13;;;14.53;49.14
18784;BME280;9520;50.954;6.968;2024-02-26T02:23:58;99120.25;;;14.66;49.14
18784;BME280;9520;50.954;6.968;2024-02-26T02:24:21;99122.81;;;14.67;49.17
18784;BME280;9520;50.954;6.968;2024-02-26T02:24:42;99121.69;;;14.72;48.94
18784;BME280;9520;50.954;6.968;2024-02-26T02:25:05;99109.97;;;14.76;48.80
18784;BME280;9520;50.954;6.968;2024-02-26T02:25:26;99114.25;;;14.78;49.09
18784;BME280;9520;50.954;6.968;2024-02-26T02:25:48;99124.88;;;14.78;49.22
18784;BME280;9520;50.954;6.968;2024-02-26T02:26:11;99109.63;;;14.82;48.98
18784;BME280;9520;50.954;6.968;2024-02-26T02:26:33;99109.47;;;14.85;48.92
18784;BME280;9520;50.954;6.968;2024-02-26T02:26:55;99116.44;;;14.86;48.78
18784;BME280;9520;50.954;6.968;2024-02-26T02:27:17;99117.31;;;14.86;48.69
18784;BME280;9520;50.954;6.968;2024-02-26T02:27:39;99114.66;;;14.86;48.73
18784;BME280;9520;50.954;6.968;2024-02-26T02:28:02;99120.66;;;14.90;48.92
18784;BME280;9520;50.954;6.968;2024-02-26T02:28:25;99111.16;;;14.86;49.00
18784;BME280;9520;50.954;6.968;2024-02-26T02:28:48;99115.13;;;14.79;48.81
18784;BME280;9520;50.954;6.968;2024-02-26T02:29:11;99115.13;;;14.79;48.76
18784;BME280;9520;50.954;6.968;2024-02-26T02:29:33;99106.91;;;14.67;48.69
18784;BME280;9520;50.954;6.968;2024-02-26T02:29:55;99118.03;;;14.74;48.58
18784;BME280;9520;50.954;6.968;2024-02-26T02:30:18;99124.03;;;14.62;48.69
18784;BME280;9520;50.954;6.968;2024-02-26T02:30:40;99122.56;;;14.56;48.42
18784;BME280;9520;50.954;6.968;2024-02-26T02:31:02;99120.63;;;14.60;48.69
18784;BME280;9520;50.954;6.968;2024-02-26T02:31:25;99117.59;;;14.66;48.43
18784;BME280;9520;50.954;6.968;2024-02-26T02:31:47;99119.66;;;14.61;47.87
18784;BME280;9520;50.954;6.968;2024-02-26T02:32:09;99123.16;;;14.61;47.91
18784;BME280;9520;50.954;6.968;2024-02-26T02:32:31;99119.75;;;14.59;47.81
18784;BME280;9520;50.954;6.968;2024-02-26T02:32:53;99130.44;;;14.42;48.13
18784;BME280;9520;50.954;6.968;2024-02-26T02:33:15;99116.06;;;14.46;47.99
18784;BME280;9520;50.954;6.968;2024-02-26T02:33:38;99127.47;;;14.48;48.18
18784;BME280;9520;50.954;6.968;2024-02-26T02:34:00;99125.47;;;14.52;48.56
18784;BME280;9520;50.954;6.968;2024-02-26T02:34:23;99129.19;;;14.49;48.42
18784;BME280;9520;50.954;6.968;2024-02-26T02:34:46;99124.53;;;14.53;48.77
18784;BME280;9520;50.954;6.968;2024-02-26T02:35:08;99122.19;;;14.31;48.58
18784;BME280;9520;50.954;6.968;2024-02-26T02:35:30;99123.81;;;14.34;48.66
18784;BME280;9520;50.954;6.968;2024-02-26T02:35:54;99116.81;;;14.33;48.55
18784;BME280;9520;50.954;6.968;2024-02-26T02:36:16;99123.75;;;14.35;48.66
18784;BME280;9520;50.954;6.968;2024-02-26T02:36:48;99115.72;;;14.37;48.49
18784;BME280;9520;50.954;6.968;2024-02-26T02:37:10;99130.84;;;14.35;48.65
18784;BME280;9520;50.954;6.968;2024-02-26T02:37:32;99122.03;;;14.34;48.62
18784;BME280;9520;50.954;6.968;2024-02-26T02:37:57;99119.19;;;14.21;49.02
18784;BME280;9520;50.954;6.968;2024-02-26T02:38:19;99123.22;;;14.28;48.76
18784;BME280;9520;50.954;6.968;2024-02-26T02:38:48;99116.81;;;14.33;48.89
18784;BME280;9520;50.954;6.968;2024-02-26T02:39:11;99115.78;;;14.35;48.98
18784;BME280;9520;50.954;6.968;2024-02-26T02:39:33;99110.16;;;14.41;49.42
18784;BME280;9520;50.954;6.968;2024-02-26T02:39:55;99118.81;;;14.45;49.43
18784;BME280;9520;50.954;6.968;2024-02-26T02:40:19;99116.84;;;14.48;49.43
18784;BME280;9520;50.954;6.968;2024-02-26T02:40:40;99122.22;;;14.47;49.22
18784;BME280;9520;50.954;6.968;2024-02-26T02:41:02;99113.78;;;14.40;49.10
18784;BME280;9520;50.954;6.968;2024-02-26T02:41:24;99122.28;;;14.30;48.67
18784;BME280;9520;50.954;6.968;2024-02-26T02:41:47;99117.59;;;14.35;48.84
18784;BME280;9520;50.954;6.968;2024-02-26T02:42:10;99120.16;;;14.36;49.11
18784;BME280;9520;50.954;6.968;2024-02-26T02:42:32;99118.91;;;14.43;48.94
18784;BME280;9520;50.954;6.968;2024-02-26T02:42:54;99117.03;;;14.45;49.51
18784;BME280;9520;50.954;6.968;2024-02-26T02:43:15;99119.56;;;14.47;49.35
18784;BME280;9520;50.954;6.968;2024-02-26T02:43:38;99126.34;;;14.52;49.36
18784;BME280;9520;50.954;6.968;2024-02-26T02:44:01;99101.72;;;14.50;49.22
18784;BME280;9520;50.954;6.968;2024-02-26T02:44:24;99120.28;;;14.50;48.88
18784;BME280;9520;50.954;6.968;2024-02-26T02:44:45;99118.31;;;14.54;48.98
18784;BME280;9520;50.954;6.968;2024-02-26T02:45:08;99108.56;;;14.54;49.13
18784;BME280;9520;50.954;6.968;2024-02-26T02:45:30;99115.81;;;14.51;48.67
18784;BME280;9520;50.954;6.968;2024-02-26T02:45:53;99115.06;;;14.49;48.42
18784;BME280;9520;50.954;6.968;2024-02-26T02:46:16;99117.53;;;14.52;48.47
18784;BME280;9520;50.954;6.968;2024-02-26T02:46:38;99103.50;;;14.50;48.60
18784;BME280;9520;50.954;6.968;2024-02-26T02:47:00;99114.34;;;14.61;48.63
18784;BME280;9520;50.954;6.968;2024-02-26T02:47:22;99115.97;;;14.63;49.13
18784;BME280;9520;50.954;6.968;2024-02-26T02:47:44;99113.16;;;14.66;49.17
18784;BME280;9520;50.954;6.968;2024-02-26T02:48:07;99111.19;;;14.70;49.14
18784;BME280;9520;50.954;6.968;2024-02-26T02:48:29;99112.03;;;14.70;49.19
18784;BME280;9520;50.954;6.968;2024-02-26T02:48:51;99104.06;;;14.70;49.50
18784;BME280;9520;50.954;6.968;2024-02-26T02:49:13;99110.16;;;14.73;49.15
18784;BME280;9520;50.954;6.968;2024-02-26T02:49:35;99111.69;;;14.77;49.05
18784;BME280;9520;50.954;6.968;2024-02-26T02:49:57;99102.53;;;14.66;48.81
18784;BME280;9520;50.954;6.968;2024-02-26T02:50:20;99116.06;;;14.78;48.62
18784;BME280;9520;50.954;6.968;2024-02-26T02:50:42;99113.22;;;14.81;48.73
18784;BME280;9520;50.954;6.968;2024-02-26T02:51:06;99119.47;;;14.80;48.60
18784;BME280;9520;50.954;6.968;2024-02-26T02:51:29;99118.69;;;14.78;48.70
18784;BME280;9520;50.954;6.968;2024-02-26T02:51:51;99114.69;;;14.70;48.73
18784;BME280;9520;50.954;6.968;2024-02-26T02:52:14;99111.53;;;14.64;48.96